Time;durP1;ratioP1;P1;durP2;ratioP2;P2;SDS_P1;SDS_P2;PMS_P1;PMS_P2;Temp;Humidity;BMP_temperature;BMP_pressure;BME280_temperature;BME280_humidity;BME280_pressure;Samples;Min_cycle;Max_cycle;Signal;HPM_P1;HPM_P2
2023/11/21 00:06:10;;;;;;;29.02;13.70;;;8.90;99.90;;;;;;5358833;22;88508;-80
2023/11/21 00:42:21;;;;;;;28.08;13.48;;;9.10;99.90;;;;;;5365559;22;88524;-81
2023/11/21 00:44:47;;;;;;;27.92;12.95;;;9.10;99.90;;;;;;5108121;23;90767;-81
2023/11/21 00:54:59;;;;;;;37.13;15.57;;;9.10;99.90;;;;;;5339528;22;87300;-80
2023/11/21 01:25:56;;;;;;;40.28;16.98;;;9.10;99.90;;;;;;5848803;22;88703;-80
2023/11/21 01:46:47;;;;;;;57.75;19.65;;;9.20;99.90;;;;;;5651581;22;89041;-81
2023/11/21 02:57:25;;;;;;;65.75;24.50;;;9.40;99.90;;;;;;5282502;22;88529;-80
2023/11/21 03:07:38;;;;;;;70.43;24.70;;;9.30;99.90;;;;;;5625231;23;89436;-80
2023/11/21 03:10:04;;;;;;;76.07;25.67;;;9.30;99.90;;;;;;4926856;28;86388;-81
2023/11/21 03:33:13;;;;;;;94.50;28.67;;;9.10;99.90;;;;;;6043793;22;89581;-80
2023/11/21 03:51:23;;;;;;;101.50;28.73;;;9.20;99.90;;;;;;5959504;22;89537;-80
2023/11/21 03:53:49;;;;;;;95.50;28.67;;;9.20;99.90;;;;;;4934256;28;87743;-80
2023/11/21 03:56:15;;;;;;;81.80;28.55;;;9.20;99.90;;;;;;4929629;28;87574;-81
2023/11/21 03:58:41;;;;;;;93.20;27.42;;;9.20;99.90;;;;;;4938757;28;87731;-81
2023/11/21 04:01:07;;;;;;;84.50;26.27;;;9.20;99.90;;;;;;4936352;28;87708;-80
2023/11/21 04:03:33;;;;;;;77.65;25.95;;;9.20;99.90;;;;;;4918615;28;88844;-81
2023/11/21 04:05:59;;;;;;;82.13;24.77;;;9.20;99.90;;;;;;4918642;28;88411;-81
2023/11/21 04:08:26;;;;;;;83.30;23.98;;;9.10;99.90;;;;;;4920848;28;88283;-81
2023/11/21 04:10:53;;;;;;;74.85;23.85;;;9.10;99.90;;;;;;4935663;28;87224;-79
2023/11/21 04:13:19;;;;;;;75.35;23.77;;;9.10;99.90;;;;;;4937319;28;87380;-80
2023/11/21 04:15:48;;;;;;;86.88;24.85;;;9.10;99.90;;;;;;4917943;28;89351;-81
2023/11/21 04:18:14;;;;;;;83.80;24.75;;;9.10;99.90;;;;;;4937561;28;89689;-81
2023/11/21 04:20:39;;;;;;;77.75;23.35;;;9.10;99.90;;;;;;4935267;28;87576;-80
2023/11/21 04:23:05;;;;;;;81.93;24.27;;;9.10;99.90;;;;;;4915352;28;89839;-79
2023/11/21 04:25:31;;;;;;;89.35;25.27;;;9.10;99.90;;;;;;4915852;28;91199;-81
2023/11/21 04:27:57;;;;;;;83.22;24.30;;;9.20;99.90;;;;;;4917069;28;89794;-80
2023/11/21 04:30:23;;;;;;;81.65;24.73;;;9.20;99.90;;;;;;4916493;28;87934;-80
2023/11/21 04:32:58;;;;;;;86.00;24.52;;;9.20;99.90;;;;;;4922384;28;88325;-80
2023/11/21 04:35:23;;;;;;;80.47;24.33;;;9.20;99.90;;;;;;4944276;28;87200;-81
2023/11/21 04:37:51;;;;;;;77.45;24.08;;;9.20;99.90;;;;;;4942301;28;87832;-80
2023/11/21 04:40:16;;;;;;;81.65;24.98;;;9.30;99.90;;;;;;4938346;28;88228;-80
2023/11/21 04:42:42;;;;;;;91.57;24.20;;;9.20;99.90;;;;;;4933429;28;88180;-81
2023/11/21 04:45:09;;;;;;;74.05;24.33;;;9.20;99.90;;;;;;4913489;28;89554;-80
2023/11/21 04:47:35;;;;;;;85.82;23.65;;;9.20;99.90;;;;;;4917796;28;89597;-81
2023/11/21 04:50:03;;;;;;;111.28;28.48;;;9.10;99.90;;;;;;4930674;28;87870;-80
2023/11/21 04:52:29;;;;;;;93.50;27.13;;;9.10;99.90;;;;;;4913690;28;88655;-79
2023/11/21 04:54:57;;;;;;;110.28;25.85;;;9.10;99.90;;;;;;4917686;28;90854;-81
2023/11/21 04:57:23;;;;;;;94.10;25.98;;;9.10;99.90;;;;;;4934865;28;86855;-81
2023/11/21 04:59:50;;;;;;;125.82;27.60;;;9.10;99.90;;;;;;4935372;28;87641;-81
2023/11/21 05:02:16;;;;;;;118.22;27.92;;;9.00;99.90;;;;;;4923033;28;88175;-81
2023/11/21 05:04:42;;;;;;;117.32;28.17;;;9.00;99.90;;;;;;4917756;28;91480;-80
2023/11/21 05:07:08;;;;;;;112.32;29.23;;;9.00;99.90;;;;;;4918709;28;90423;-80
2023/11/21 05:09:50;;;;;;;131.25;29.55;;;9.00;99.90;;;;;;4936675;28;87571;-81
2023/11/21 05:12:15;;;;;;;112.82;28.70;;;9.00;99.90;;;;;;4920468;28;88457;-81
2023/11/21 05:14:41;;;;;;;112.35;30.10;;;9.00;99.90;;;;;;4943791;28;87378;-80
2023/11/21 05:17:07;;;;;;;115.47;28.88;;;9.00;99.90;;;;;;4940827;28;88568;-81
2023/11/21 05:19:35;;;;;;;110.90;27.00;;;9.00;99.90;;;;;;4923364;28;86847;-80
2023/11/21 05:22:01;;;;;;;97.43;25.15;;;9.00;99.90;;;;;;4945021;28;86306;-81
2023/11/21 05:24:28;;;;;;;110.07;26.85;;;9.00;99.90;;;;;;4925928;28;89355;-81
2023/11/21 05:26:54;;;;;;;98.20;26.13;;;9.00;99.90;;;;;;4917610;28;89500;-81
2023/11/21 05:29:20;;;;;;;97.38;26.92;;;9.10;99.90;;;;;;4914955;28;88041;-80
2023/11/21 05:31:46;;;;;;;98.07;26.20;;;9.10;99.90;;;;;;4920058;28;88399;-81
2023/11/21 05:34:11;;;;;;;115.82;28.33;;;9.10;99.90;;;;;;4938028;28;87246;-81
2023/11/21 05:36:37;;;;;;;103.00;26.85;;;9.10;99.90;;;;;;4933668;28;88653;-80
2023/11/21 05:39:04;;;;;;;139.00;26.20;;;9.10;99.90;;;;;;4921649;28;87603;-81
2023/11/21 05:41:30;;;;;;;122.22;27.05;;;9.10;99.90;;;;;;4919747;28;88388;-80
2023/11/21 05:43:56;;;;;;;105.18;27.63;;;9.10;99.90;;;;;;4941971;28;88412;-81
2023/11/21 05:46:26;;;;;;;96.38;27.15;;;9.10;99.90;;;;;;4926691;28;89245;-80
2023/11/21 05:48:52;;;;;;;114.35;27.20;;;9.10;99.90;;;;;;4937997;28;87657;-80
2023/11/21 05:51:18;;;;;;;109.25;26.20;;;9.10;99.90;;;;;;4940352;28;88083;-81
2023/11/21 05:53:44;;;;;;;92.63;25.75;;;9.10;99.90;;;;;;4924639;28;91419;-79
2023/11/21 05:56:10;;;;;;;106.57;27.33;;;9.10;99.90;;;;;;4939574;28;88735;-79
2023/11/21 05:58:36;;;;;;;92.40;27.25;;;9.10;99.90;;;;;;4940295;28;87121;-81
2023/11/21 06:01:07;;;;;;;99.65;26.73;;;9.20;99.90;;;;;;4936493;28;87094;-80
2023/11/21 06:03:33;;;;;;;91.88;26.23;;;9.20;99.90;;;;;;4921650;28;90421;-81
2023/11/21 06:05:59;;;;;;;80.97;25.05;;;9.20;99.90;;;;;;4939683;28;87392;-80
2023/11/21 06:08:25;;;;;;;84.50;24.35;;;9.20;99.90;;;;;;4942462;28;87667;-80
2023/11/21 06:10:50;;;;;;;93.68;26.02;;;9.20;99.90;;;;;;4924638;28;88542;-81
2023/11/21 06:13:19;;;;;;;87.75;25.80;;;9.30;99.90;;;;;;4944120;28;87437;-80
2023/11/21 06:15:45;;;;;;;98.82;27.45;;;9.30;99.90;;;;;;4926821;28;88745;-80
2023/11/21 06:18:11;;;;;;;105.43;26.58;;;9.30;99.90;;;;;;4939120;28;87911;-81
2023/11/21 06:20:37;;;;;;;104.65;28.23;;;9.30;99.90;;;;;;4941678;28;87014;-80
2023/11/21 06:23:03;;;;;;;106.72;27.38;;;9.30;99.90;;;;;;4939918;28;87250;-80
2023/11/21 06:25:32;;;;;;;100.72;28.38;;;9.30;99.90;;;;;;4941566;28;87342;-81
2023/11/21 06:27:58;;;;;;;115.43;30.65;;;9.30;99.90;;;;;;4925264;28;87250;-80
2023/11/21 06:30:24;;;;;;;102.88;28.92;;;9.30;99.90;;;;;;4926446;28;88911;-80
2023/11/21 06:32:56;;;;;;;117.95;28.15;;;9.20;99.90;;;;;;4945089;28;87127;-80
2023/11/21 06:35:22;;;;;;;98.80;26.85;;;9.20;99.90;;;;;;4919723;28;89062;-80
2023/11/21 06:37:48;;;;;;;101.28;26.17;;;9.20;99.90;;;;;;4924176;28;87726;-81
2023/11/21 06:40:15;;;;;;;89.18;25.95;;;9.20;99.90;;;;;;4936711;28;87542;-81
2023/11/21 06:42:41;;;;;;;85.38;26.08;;;9.20;99.90;;;;;;4938352;28;88740;-82
2023/11/21 06:45:10;;;;;;;94.68;27.30;;;9.10;99.90;;;;;;4920962;28;91037;-81
2023/11/21 06:47:37;;;;;;;84.72;24.25;;;9.10;99.90;;;;;;4939781;28;87266;-81
2023/11/21 07:05:35;;;;;;;100.68;25.52;;;9.10;99.90;;;;;;5096413;22;88212;-85
2023/11/21 07:08:04;;;;;;;83.35;25.27;;;9.20;99.90;;;;;;4939222;28;87977;-80
2023/11/21 07:10:30;;;;;;;93.53;26.15;;;9.10;99.90;;;;;;4940805;28;87268;-82
2023/11/21 07:12:56;;;;;;;76.50;25.05;;;9.10;99.90;;;;;;4944696;28;87773;-79
2023/11/21 07:15:22;;;;;;;71.63;23.38;;;9.10;99.90;;;;;;4943640;28;87499;-80
2023/11/21 07:17:48;;;;;;;73.03;23.30;;;9.20;99.90;;;;;;4944826;28;87303;-80
2023/11/21 07:20:16;;;;;;;77.25;23.75;;;9.20;99.90;;;;;;4925313;28;88614;-80
2023/11/21 07:22:53;;;;;;;73.90;24.27;;;9.20;99.90;;;;;;4924437;28;90381;-80
2023/11/21 07:25:19;;;;;;;73.68;23.35;;;9.20;99.90;;;;;;4932041;28;89585;-81
2023/11/21 07:27:44;;;;;;;76.63;25.25;;;9.30;99.90;;;;;;4927629;28;87586;-80
2023/11/21 07:30:13;;;;;;;71.65;23.27;;;9.30;99.90;;;;;;4927213;28;88570;-81
2023/11/21 07:32:39;;;;;;;72.10;24.60;;;9.30;99.90;;;;;;4939950;28;88710;-81
2023/11/21 07:35:06;;;;;;;76.30;24.90;;;9.30;99.90;;;;;;4919596;28;90514;-81
2023/11/21 07:37:33;;;;;;;69.10;23.30;;;9.30;99.90;;;;;;4924231;28;87444;-80
2023/11/21 07:39:59;;;;;;;80.15;24.77;;;9.40;99.90;;;;;;4921367;28;87924;-81
2023/11/21 07:42:26;;;;;;;74.47;24.95;;;9.30;99.90;;;;;;4940870;28;88981;-80
2023/11/21 07:44:52;;;;;;;76.45;23.75;;;9.30;99.90;;;;;;4942581;28;87891;-80
2023/11/21 07:47:20;;;;;;;75.50;24.38;;;9.30;99.90;;;;;;4949331;28;87183;-81
2023/11/21 07:49:47;;;;;;;79.43;23.58;;;9.30;99.90;;;;;;4947578;28;87832;-75
2023/11/21 07:52:23;;;;;;;84.00;25.23;;;9.30;99.90;;;;;;4927540;28;87740;-80
2023/11/21 07:54:52;;;;;;;80.00;25.30;;;9.40;99.90;;;;;;4932852;28;87699;-79
2023/11/21 07:57:17;;;;;;;84.90;25.65;;;9.30;99.90;;;;;;4908014;28;88618;-79
2023/11/21 07:59:43;;;;;;;90.45;26.58;;;9.30;99.90;;;;;;4923067;28;87259;-79
2023/11/21 08:02:09;;;;;;;90.25;26.15;;;9.20;99.90;;;;;;4910054;28;90416;-79
2023/11/21 08:04:38;;;;;;;87.22;26.63;;;9.30;99.90;;;;;;4913889;28;93582;-79
2023/11/21 08:07:04;;;;;;;83.93;26.40;;;9.30;99.90;;;;;;4909325;28;87556;-80
2023/11/21 08:09:30;;;;;;;68.22;23.23;;;9.30;99.90;;;;;;4911520;28;90341;-79
2023/11/21 08:11:56;;;;;;;86.80;26.35;;;9.30;99.90;;;;;;4912264;28;91590;-80
2023/11/21 08:14:33;;;;;;;79.97;26.52;;;9.20;99.90;;;;;;4910736;28;89443;-79
2023/11/21 08:16:59;;;;;;;68.70;24.05;;;9.30;99.90;;;;;;4926919;28;87568;-79
2023/11/21 08:19:27;;;;;;;68.82;23.33;;;9.30;99.90;;;;;;4914231;28;89746;-78
2023/11/21 08:21:54;;;;;;;69.55;23.77;;;9.30;99.90;;;;;;4906525;28;92328;-78
2023/11/21 08:24:20;;;;;;;65.38;21.42;;;9.40;99.90;;;;;;4908117;28;91477;-79
2023/11/21 08:26:46;;;;;;;65.50;22.88;;;9.40;99.90;;;;;;4928445;28;88128;-78
2023/11/21 08:29:12;;;;;;;73.93;22.65;;;9.40;99.90;;;;;;4911236;28;88936;-80
2023/11/21 08:31:38;;;;;;;66.90;22.60;;;9.30;99.90;;;;;;4909182;28;91511;-80
2023/11/21 08:34:03;;;;;;;71.43;23.50;;;9.40;99.90;;;;;;4906050;28;89904;-80
2023/11/21 08:36:31;;;;;;;65.07;22.13;;;9.40;99.90;;;;;;4931398;28;87708;-79
2023/11/21 08:39:03;;;;;;;67.53;22.45;;;9.40;99.90;;;;;;4915553;28;89305;-80
2023/11/21 08:41:30;;;;;;;67.15;21.45;;;9.40;99.90;;;;;;4925241;28;87694;-79
2023/11/21 08:43:58;;;;;;;72.65;22.95;;;9.50;99.90;;;;;;4904504;28;89591;-80
2023/11/21 08:47:18;;;;;;;57.60;22.27;;;9.50;99.90;;;;;;5008292;28;86397;-78
2023/11/21 08:49:44;;;;;;;70.30;21.77;;;9.60;99.90;;;;;;5007548;28;85659;-78
2023/11/21 08:52:09;;;;;;;61.47;20.58;;;9.60;99.90;;;;;;5014923;28;86100;-78
2023/11/21 08:54:36;;;;;;;60.75;22.05;;;9.60;99.90;;;;;;5006787;28;88556;-79
2023/11/21 08:57:02;;;;;;;57.85;20.45;;;9.60;99.90;;;;;;5011523;28;86631;-78
2023/11/21 08:59:28;;;;;;;68.20;20.02;;;9.60;99.90;;;;;;5004439;28;85795;-78
2023/11/21 09:01:53;;;;;;;55.78;20.42;;;9.70;99.90;;;;;;5009060;28;85846;-78
2023/11/21 09:04:19;;;;;;;58.83;21.05;;;9.70;99.90;;;;;;5010232;28;86462;-78
2023/11/21 09:06:44;;;;;;;54.88;20.10;;;9.70;99.90;;;;;;5006910;28;88380;-78
2023/11/21 09:09:10;;;;;;;48.35;19.10;;;9.80;99.90;;;;;;5006672;28;87015;-78
2023/11/21 09:11:36;;;;;;;55.17;19.83;;;9.80;99.90;;;;;;5011035;28;85455;-78
2023/11/21 09:14:06;;;;;;;49.78;19.73;;;9.90;99.90;;;;;;5026059;27;88665;-78
2023/11/21 09:16:31;;;;;;;55.20;19.90;;;9.90;99.90;;;;;;5012754;28;87965;-78
2023/11/21 09:18:57;;;;;;;53.20;19.27;;;9.90;99.90;;;;;;5009408;28;85271;-77
2023/11/21 09:21:24;;;;;;;47.03;19.38;;;10.00;99.90;;;;;;5008037;28;86411;-78
2023/11/21 09:23:53;;;;;;;45.67;19.67;;;10.00;99.90;;;;;;5007536;28;85757;-78
2023/11/21 09:26:19;;;;;;;51.75;20.55;;;10.00;99.90;;;;;;5010354;28;86221;-78
2023/11/21 09:28:48;;;;;;;45.55;19.95;;;10.10;99.90;;;;;;5005864;28;86201;-79
2023/11/21 09:31:15;;;;;;;49.08;18.83;;;10.10;99.90;;;;;;5011014;28;86555;-79
2023/11/21 09:33:50;;;;;;;50.13;19.67;;;10.10;99.90;;;;;;5003637;28;88708;-75
2023/11/21 09:36:16;;;;;;;50.15;19.33;;;10.20;99.90;;;;;;5000761;28;89968;-76
2023/11/21 09:38:42;;;;;;;43.35;20.17;;;10.20;99.90;;;;;;5003325;28;85919;-76
2023/11/21 09:41:55;;;;;;;43.03;18.40;;;10.30;99.90;;;;;;4999652;28;85801;-77
2023/11/21 09:44:45;;;;;;;38.85;17.40;;;10.40;99.90;;;;;;4958279;28;86509;-76
2023/11/21 09:47:20;;;;;;;38.72;16.70;;;10.40;99.90;;;;;;4955780;28;87909;-76
2023/11/21 09:49:47;;;;;;;46.65;18.05;;;10.50;99.90;;;;;;4981952;28;86149;-76
2023/11/21 09:52:32;;;;;;;38.58;17.48;;;10.50;99.90;;;;;;5003709;28;86169;-76
2023/11/21 09:54:58;;;;;;;41.13;17.88;;;10.50;99.90;;;;;;4993043;28;90813;-75
2023/11/21 09:57:25;;;;;;;42.58;18.23;;;10.60;99.90;;;;;;4987589;28;87116;-76
2023/11/21 09:59:58;;;;;;;39.78;15.95;;;10.60;99.90;;;;;;4980442;28;86917;-75
2023/11/21 10:02:30;;;;;;;;;;;10.60;99.90;;;;;;4980271;28;86414;-76
2023/11/21 10:04:56;;;;;;;36.53;16.27;;;10.70;99.90;;;;;;4985516;28;89454;-77
2023/11/21 10:07:22;;;;;;;43.17;17.02;;;10.70;99.90;;;;;;4984155;28;89275;-77
2023/11/21 10:09:50;;;;;;;35.45;16.10;;;10.70;99.90;;;;;;4986246;28;86850;-76
2023/11/21 10:12:16;;;;;;;37.80;15.80;;;10.70;99.90;;;;;;4987409;28;85945;-77
2023/11/21 10:14:43;;;;;;;39.30;16.80;;;10.70;99.90;;;;;;4984158;28;86912;-76
2023/11/21 10:17:12;;;;;;;41.03;15.98;;;10.80;99.90;;;;;;4978944;28;86127;-77
2023/11/21 10:19:38;;;;;;;39.03;15.90;;;10.80;99.90;;;;;;4985392;28;87094;-76
2023/11/21 10:22:06;;;;;;;35.58;15.60;;;10.80;99.90;;;;;;5019466;28;85938;-78
2023/11/21 10:24:38;;;;;;;35.15;15.43;;;10.90;99.90;;;;;;4988334;28;85940;-76
2023/11/21 10:27:04;;;;;;;35.00;15.38;;;10.90;99.90;;;;;;4987276;28;86596;-76
2023/11/21 10:29:30;;;;;;;34.65;15.32;;;10.90;99.90;;;;;;4981908;28;86416;-76
2023/11/21 10:31:58;;;;;;;39.33;16.38;;;10.90;99.90;;;;;;4984440;28;86039;-76
2023/11/21 10:34:35;;;;;;;36.25;15.38;;;11.00;99.90;;;;;;4988032;28;86595;-76
2023/11/21 10:37:11;;;;;;;41.40;17.42;;;11.00;99.90;;;;;;4980863;28;86975;-76
2023/11/21 10:39:39;;;;;;;35.95;15.88;;;11.00;99.90;;;;;;4988149;28;87170;-76
2023/11/21 10:42:07;;;;;;;32.38;15.27;;;11.10;99.90;;;;;;4986432;28;86812;-77
2023/11/21 10:44:37;;;;;;;32.67;15.35;;;11.10;99.90;;;;;;4986857;28;87066;-78
2023/11/21 10:47:03;;;;;;;42.58;16.27;;;11.10;99.90;;;;;;4981684;28;86576;-76
2023/11/21 10:49:31;;;;;;;35.15;15.65;;;11.10;99.90;;;;;;4988123;28;86132;-76
2023/11/21 10:51:57;;;;;;;39.67;16.08;;;11.10;99.90;;;;;;4977904;28;87409;-76
2023/11/21 10:54:25;;;;;;;38.92;16.83;;;11.20;99.90;;;;;;4980315;28;87524;-75
2023/11/21 10:56:56;;;;;;;37.35;16.27;;;11.20;99.90;;;;;;4986044;28;90017;-76
2023/11/21 10:59:25;;;;;;;47.95;18.52;;;11.10;99.90;;;;;;4984028;28;86316;-77
2023/11/21 11:01:52;;;;;;;46.13;18.10;;;11.10;99.90;;;;;;4982920;28;86333;-76
2023/11/21 11:04:22;;;;;;;38.60;17.23;;;11.20;99.90;;;;;;4983008;28;87402;-76
2023/11/21 11:07:13;;;;;;;45.38;18.35;;;11.10;99.90;;;;;;4987573;28;86766;-76
2023/11/21 11:09:38;;;;;;;43.45;18.15;;;11.20;99.90;;;;;;4986533;28;87280;-76
2023/11/21 11:12:06;;;;;;;47.28;18.05;;;11.30;99.90;;;;;;4984665;28;86657;-76
2023/11/21 11:14:32;;;;;;;40.15;17.00;;;11.30;99.90;;;;;;4985817;28;89347;-76
2023/11/21 11:16:59;;;;;;;47.88;18.02;;;11.40;99.90;;;;;;4981841;28;90280;-78
2023/11/21 11:19:25;;;;;;;45.47;17.05;;;11.40;99.90;;;;;;4982965;28;85877;-79
2023/11/21 11:22:35;;;;;;;39.08;15.75;;;11.40;99.90;;;;;;4978805;28;85885;-78
2023/11/21 11:25:34;;;;;;;31.15;13.90;;;11.40;99.90;;;;;;4980762;28;90043;-78
2023/11/21 11:28:27;;;;;;;32.67;14.43;;;11.50;99.90;;;;;;4982935;28;86354;-78
2023/11/21 11:31:16;;;;;;;34.25;14.82;;;11.50;99.90;;;;;;4987150;28;86148;-78
2023/11/21 11:33:59;;;;;;;36.90;14.95;;;11.50;99.90;;;;;;4980508;28;86413;-79
2023/11/21 11:36:29;;;;;;;32.13;12.87;;;11.50;99.90;;;;;;4982647;28;87335;-78
2023/11/21 11:38:56;;;;;;;28.63;13.15;;;11.40;99.90;;;;;;4983251;28;86296;-79
2023/11/21 11:41:32;;;;;;;27.90;13.30;;;11.40;99.90;;;;;;4987113;28;85814;-78
2023/11/21 11:43:58;;;;;;;31.92;14.32;;;11.40;99.90;;;;;;4978752;28;87284;-77
2023/11/21 11:46:47;;;;;;;33.42;15.77;;;11.30;99.90;;;;;;4982141;28;87388;-77
2023/11/21 11:49:27;;;;;;;35.00;14.23;;;11.30;99.90;;;;;;4976843;28;89933;-77
2023/11/21 11:52:31;;;;;;;35.65;14.55;;;11.30;99.90;;;;;;4985912;28;85966;-78
2023/11/21 11:54:56;;;;;;;35.95;15.75;;;11.30;99.90;;;;;;4978682;28;86524;-79
2023/11/21 11:57:25;;;;;;;37.10;16.70;;;11.30;99.90;;;;;;4979412;28;90226;-77
2023/11/21 12:00:21;;;;;;;35.25;16.63;;;11.20;99.90;;;;;;4979276;28;86518;-78
2023/11/21 12:02:56;;;;;;;44.92;19.52;;;11.20;99.90;;;;;;4981600;28;85878;-79
2023/11/21 12:05:23;;;;;;;44.70;17.45;;;11.10;99.90;;;;;;4978746;28;86785;-78
2023/11/21 12:07:53;;;;;;;51.13;20.27;;;11.10;99.90;;;;;;4981737;28;88553;-78
2023/11/21 12:10:24;;;;;;;56.63;24.27;;;11.10;99.90;;;;;;4980009;28;90153;-77
2023/11/21 12:12:56;;;;;;;58.03;24.20;;;11.10;99.90;;;;;;4980634;28;86357;-78
2023/11/21 12:15:23;;;;;;;53.53;23.83;;;11.20;99.90;;;;;;4979317;28;86960;-78
2023/11/21 12:17:50;;;;;;;56.03;23.73;;;11.20;99.90;;;;;;4981636;28;90740;-78
2023/11/21 12:20:19;;;;;;;55.55;21.80;;;11.20;99.90;;;;;;4976142;28;89627;-78
2023/11/21 12:22:48;;;;;;;56.15;22.23;;;11.30;99.90;;;;;;4981038;28;87091;-77
2023/11/21 12:25:21;;;;;;;43.80;19.30;;;11.30;99.90;;;;;;4976491;28;86805;-79
2023/11/21 12:27:49;;;;;;;51.07;22.80;;;11.40;99.90;;;;;;4981817;28;86976;-78
2023/11/21 12:30:17;;;;;;;56.33;25.58;;;11.50;99.90;;;;;;4979457;28;90059;-77
2023/11/21 12:32:48;;;;;;;53.42;22.45;;;11.50;99.90;;;;;;4978669;28;85831;-77
2023/11/21 12:35:14;;;;;;;47.53;20.58;;;11.60;99.90;;;;;;4979788;28;87150;-79
2023/11/21 12:37:42;;;;;;;48.88;21.33;;;11.70;99.90;;;;;;4985511;28;85851;-78
2023/11/21 12:40:15;;;;;;;45.75;20.13;;;11.70;99.90;;;;;;4998931;28;85916;-78
2023/11/21 12:42:44;;;;;;;38.23;18.87;;;11.70;99.90;;;;;;4992680;28;86191;-79
2023/11/21 12:45:21;;;;;;;38.60;17.40;;;11.80;99.90;;;;;;4985215;28;86554;-80
2023/11/21 12:47:51;;;;;;;41.00;19.77;;;11.90;99.90;;;;;;4984472;28;90471;-79
2023/11/21 12:50:23;;;;;;;39.65;18.27;;;11.90;99.90;;;;;;4983444;28;86511;-78
2023/11/21 12:52:56;;;;;;;39.30;19.13;;;11.90;99.90;;;;;;5002283;28;87773;-78
2023/11/21 12:55:22;;;;;;;42.38;20.35;;;11.80;99.90;;;;;;4985855;28;86171;-79
2023/11/21 12:57:55;;;;;;;40.97;20.27;;;11.80;99.90;;;;;;4985148;28;87635;-78
2023/11/21 13:00:32;;;;;;;39.33;19.90;;;11.70;99.90;;;;;;4979994;28;86046;-79
2023/11/21 13:02:58;;;;;;;40.88;22.75;;;11.70;99.90;;;;;;4989838;28;85703;-79
2023/11/21 13:05:44;;;;;;;45.45;21.60;;;11.60;99.90;;;;;;4986538;28;86486;-79
2023/11/21 13:08:12;;;;;;;41.08;17.98;;;11.60;99.90;;;;;;4985874;28;90503;-79
2023/11/21 13:10:43;;;;;;;43.35;20.85;;;11.70;99.90;;;;;;4987101;28;89943;-79
2023/11/21 13:13:17;;;;;;;42.08;19.25;;;11.70;99.90;;;;;;4986560;28;85832;-79
2023/11/21 13:16:00;;;;;;;43.58;18.55;;;11.70;99.90;;;;;;4994934;28;85787;-78
2023/11/21 13:41:39;;;;;;;44.53;19.70;;;12.10;99.90;;;;;;5056982;23;89623;-78
2023/11/21 13:44:17;;;;;;;45.25;19.85;;;12.10;99.90;;;;;;4897672;28;87376;-78
2023/11/21 13:46:46;;;;;;;43.15;19.85;;;12.10;99.90;;;;;;4895458;28;87487;-77
2023/11/21 13:49:11;;;;;;;44.72;21.63;;;12.10;99.90;;;;;;4897975;28;90629;-78
2023/11/21 13:51:43;;;;;;;48.90;21.65;;;12.10;99.90;;;;;;4896043;28;89870;-78
2023/11/21 13:54:09;;;;;;;45.45;20.55;;;12.10;99.90;;;;;;4888258;28;86610;-79
2023/11/21 13:56:36;;;;;;;50.35;23.35;;;12.10;99.90;;;;;;4902440;28;87475;-78
2023/11/21 13:59:13;;;;;;;42.88;22.08;;;12.10;99.90;;;;;;4895356;28;86506;-77
2023/11/21 14:01:54;;;;;;;55.28;24.77;;;12.20;99.90;;;;;;4895428;28;90095;-77
2023/11/21 14:04:32;;;;;;;46.55;22.08;;;12.30;99.90;;;;;;4898009;28;87632;-80
2023/11/21 14:07:00;;;;;;;45.92;21.30;;;12.20;99.90;;;;;;4899633;28;87052;-80
2023/11/21 14:09:32;;;;;;;44.58;20.45;;;12.20;99.90;;;;;;4899991;28;86745;-80
2023/11/21 14:11:59;;;;;;;40.67;20.77;;;12.20;99.90;;;;;;4894695;28;89714;-78
2023/11/21 14:14:27;;;;;;;37.92;18.80;;;12.20;99.90;;;;;;4895900;28;86618;-78
2023/11/21 14:16:54;;;;;;;35.22;16.83;;;12.10;99.90;;;;;;4895305;28;86668;-77
2023/11/21 14:19:20;;;;;;;36.17;16.90;;;12.10;99.90;;;;;;4900192;28;90180;-77
2023/11/21 14:21:48;;;;;;;34.08;16.98;;;12.10;99.90;;;;;;4899853;28;86648;-77
2023/11/21 14:24:17;;;;;;;39.80;19.30;;;12.10;99.90;;;;;;4898831;28;86297;-77
2023/11/21 14:26:45;;;;;;;40.67;20.02;;;12.10;99.90;;;;;;4902944;28;86521;-80
2023/11/21 14:29:19;;;;;;;36.30;17.23;;;12.00;99.90;;;;;;4910098;28;86982;-79
2023/11/21 14:31:50;;;;;;;39.50;18.13;;;12.00;99.90;;;;;;4906945;28;88923;-81
2023/11/21 14:34:16;;;;;;;36.70;18.27;;;12.00;99.90;;;;;;4902677;28;87097;-78
2023/11/21 14:36:43;;;;;;;37.22;18.15;;;12.00;99.90;;;;;;4905664;28;86200;-79
2023/11/21 14:39:20;;;;;;;35.22;18.45;;;12.10;99.90;;;;;;4904826;28;89769;-78
2023/11/21 14:41:46;;;;;;;34.40;19.73;;;12.10;99.90;;;;;;4907311;28;86817;-80
2023/11/21 14:44:13;;;;;;;37.58;18.38;;;12.10;99.90;;;;;;4905228;28;87005;-79
2023/11/21 14:46:44;;;;;;;32.10;16.33;;;12.10;99.90;;;;;;4903908;28;87389;-78
2023/11/21 14:49:23;;;;;;;34.35;15.45;;;12.10;99.90;;;;;;4903683;28;88095;-78
2023/11/21 14:52:17;;;;;;;27.40;14.55;;;12.10;99.90;;;;;;4903216;28;86539;-79
2023/11/21 14:54:46;;;;;;;28.92;17.27;;;12.10;99.90;;;;;;4902035;28;86938;-78
2023/11/21 14:57:18;;;;;;;27.88;13.75;;;12.10;99.90;;;;;;4901932;28;86747;-80
2023/11/21 14:59:48;;;;;;;24.80;13.65;;;12.10;99.90;;;;;;4898684;28;86605;-79
2023/11/21 15:02:22;;;;;;;26.77;14.40;;;12.10;99.90;;;;;;4900048;28;90034;-78
2023/11/21 15:04:51;;;;;;;29.30;13.15;;;12.10;99.90;;;;;;4910344;28;86596;-80
2023/11/21 15:07:17;;;;;;;25.08;13.05;;;12.10;99.90;;;;;;4903462;28;86967;-78
2023/11/21 15:09:44;;;;;;;27.50;14.32;;;12.10;99.90;;;;;;4905639;28;89658;-80
2023/11/21 15:12:14;;;;;;;26.10;14.02;;;12.10;99.90;;;;;;4906296;28;88120;-80
2023/11/21 15:14:41;;;;;;;27.38;13.27;;;12.10;99.90;;;;;;4900560;28;86358;-79
2023/11/21 15:17:07;;;;;;;23.60;12.63;;;12.10;99.90;;;;;;4902588;28;87319;-79
2023/11/21 15:19:34;;;;;;;28.45;14.85;;;12.10;99.90;;;;;;4901989;28;86613;-79
2023/11/21 15:22:00;;;;;;;29.10;15.35;;;12.10;99.90;;;;;;4906635;28;86463;-78
2023/11/21 15:24:25;;;;;;;28.00;13.77;;;12.10;99.90;;;;;;4904097;28;86218;-78
2023/11/21 15:26:51;;;;;;;24.27;13.52;;;12.00;99.90;;;;;;4900275;28;86633;-80
2023/11/21 15:29:17;;;;;;;23.77;12.82;;;11.90;99.90;;;;;;4904150;28;91322;-80
2023/11/21 15:31:48;;;;;;;29.52;14.50;;;11.90;99.90;;;;;;4902570;28;88153;-80
2023/11/21 15:34:17;;;;;;;23.80;12.60;;;11.80;99.90;;;;;;4904414;28;86372;-79
2023/11/21 15:36:43;;;;;;;27.33;13.10;;;11.80;99.90;;;;;;4902676;28;86779;-80
2023/11/21 15:39:10;;;;;;;23.83;12.60;;;11.70;99.90;;;;;;4900209;28;89639;-79
2023/11/21 15:41:38;;;;;;;25.08;13.18;;;11.70;99.90;;;;;;4898454;28;87307;-79
2023/11/21 15:44:10;;;;;;;21.55;12.50;;;11.70;99.90;;;;;;4899168;28;87216;-79
2023/11/21 15:46:37;;;;;;;26.08;13.00;;;11.70;99.90;;;;;;4897425;28;87812;-78
2023/11/21 15:49:12;;;;;;;23.30;12.20;;;11.60;99.90;;;;;;4911391;28;89473;-79
2023/11/21 15:51:44;;;;;;;27.40;12.45;;;11.60;99.90;;;;;;4904488;28;86553;-80
2023/11/21 15:54:16;;;;;;;27.00;13.18;;;11.60;99.90;;;;;;4914988;28;86389;-81
2023/11/21 15:56:42;;;;;;;23.35;12.27;;;11.50;99.90;;;;;;4913021;28;86565;-81
2023/11/21 15:59:10;;;;;;;26.17;12.68;;;11.50;99.90;;;;;;4912233;28;89499;-80
2023/11/21 16:01:41;;;;;;;27.15;12.75;;;11.50;99.90;;;;;;4907655;28;89774;-81
2023/11/21 16:04:07;;;;;;;26.75;12.68;;;11.50;99.90;;;;;;4912841;28;86131;-80
2023/11/21 16:06:39;;;;;;;25.77;13.02;;;11.40;99.90;;;;;;4906545;28;87532;-79
2023/11/21 16:09:05;;;;;;;24.88;12.30;;;11.40;99.90;;;;;;4881795;28;89858;-79
2023/11/21 16:11:33;;;;;;;26.58;13.70;;;11.40;99.90;;;;;;4883035;28;87094;-79
2023/11/21 16:13:59;;;;;;;24.35;12.77;;;11.40;99.90;;;;;;4876769;28;86426;-81
2023/11/21 16:16:25;;;;;;;30.13;13.50;;;11.40;99.90;;;;;;4891617;28;87111;-79
2023/11/21 16:18:51;;;;;;;23.83;12.52;;;11.40;99.90;;;;;;4881482;28;87052;-80
2023/11/21 16:21:17;;;;;;;27.75;13.60;;;11.30;99.90;;;;;;4879930;28;88153;-81
2023/11/21 16:23:45;;;;;;;34.80;15.38;;;11.30;99.90;;;;;;4883577;28;86965;-80
2023/11/21 16:26:11;;;;;;;30.33;14.70;;;11.30;99.90;;;;;;4884493;28;86365;-79
2023/11/21 16:28:38;;;;;;;30.05;15.45;;;11.20;99.90;;;;;;4879738;28;90199;-80
2023/11/21 16:31:03;;;;;;;35.55;16.50;;;11.10;99.90;;;;;;4874628;28;89567;-79
2023/11/21 16:33:29;;;;;;;38.55;17.48;;;11.10;99.90;;;;;;4879856;28;86377;-80
2023/11/21 16:35:55;;;;;;;34.58;17.15;;;11.00;99.90;;;;;;4892140;28;86311;-79
2023/11/21 16:38:21;;;;;;;37.33;16.40;;;10.90;99.90;;;;;;4879574;28;86552;-79
2023/11/21 16:40:47;;;;;;;39.50;17.63;;;10.80;99.90;;;;;;4875579;28;90110;-79
2023/11/21 16:43:12;;;;;;;37.80;17.35;;;10.80;99.90;;;;;;4875532;28;87491;-80
2023/11/21 16:45:38;;;;;;;33.50;16.75;;;10.80;99.90;;;;;;4874562;28;87193;-79